Flight Track Log - Related Links

Times and Time Zones

All times are in EDT time to prevent confusion due to time zone crossing. See the N1ER flight status page for this flight to view local times or setup timezone preferences in your user account.

Time Position Orientation Groundspeed Altitude Reporting Facility
EDT Latitude Longitude Course Direction KTS MPH feet Rate Location/Type
Wed 02:13:05 PM 29.1811 -81.1111 279° West 96 110 2,000  Level Jacksonville Center
Wed 02:14:06 PM 29.1856 -81.1419 279° West 102 117 2,800 738 Climbing Jacksonville Center
Wed 02:15:07 PM 29.1903 -81.1775 279° West 109 125 3,500 393 Climbing Jacksonville Center
Wed 02:16:08 PM 29.2178 -81.1961 329° Northwest 121 139 3,600 393 Climbing Jacksonville Center
Wed 02:17:09 PM 29.2428 -81.2028 347° North 107 123 4,300 744 Climbing Jacksonville Center
Wed 02:18:09 PM 29.2742 -81.2022 North 106 122 5,100 645 Climbing Jacksonville Center
Wed 02:19:10 PM 29.3056 -81.2017 North 114 131 5,600 246 Climbing Jacksonville Center
Wed 02:20:11 PM 29.3453 -81.2058 355° North 136 157 5,600  Level Jacksonville Center
Wed 02:21:12 PM 29.3808 -81.2125 351° North 133 153 5,600  Level Jacksonville Center
Wed 02:22:13 PM 29.4183 -81.2164 355° North 135 155 5,600  Level Jacksonville Center
Wed 02:23:14 PM 29.4581 -81.2231 352° North 138 159 5,600 -50 Level Jacksonville Center
Wed 02:24:14 PM 29.4978 -81.2247 358° North 141 162 5,500 -50 Descending Jacksonville Center
Wed 02:25:15 PM 29.5375 -81.2289 355° North 137 158 5,500  Level Jacksonville Center
Wed 02:26:16 PM 29.5750 -81.2306 358° North 136 157 5,500  Level Jacksonville Center
Wed 02:27:17 PM 29.6147 -81.2369 352° North 147 169 5,500  Level Jacksonville Center
Wed 02:27:27 PM 29.6211 -81.2369 360° North 138 159 5,500  Level Jacksonville Center
Wed 02:27:57 PM 29.6400 -81.2392 354° North 139 160 5,500  Level Jacksonville Center
Wed 02:28:58 PM 29.6797 -81.2431 355° North 140 161 5,500  Level Jacksonville Center
Wed 02:29:59 PM 29.7194 -81.2472 355° North 137 158 5,500  Level Jacksonville Center
Wed 02:31:06 PM 29.7633 -81.2514 355° North 140 161 5,500  Level Jacksonville Center
Wed 02:32:07 PM 29.8008 -81.2556 354° North 142 163 5,500  Level Jacksonville Center
Wed 02:33:02 PM 29.8386 -81.2594 355° North 139 160 5,500  Level Jacksonville Center
Wed 02:34:03 PM 29.8761 -81.2614 357° North 139 160 5,500  Level Jacksonville Center
Wed 02:36:11 PM 29.9578 -81.2719 354° North 129 148 5,500  Level Jacksonville Center
Wed 02:37:18 PM 29.9931 -81.2739 357° North 127 146 5,500  Level Jacksonville Center
Wed 02:38:12 PM 30.0267 -81.2756 358° North 131 151 5,500  Level Jacksonville Center
Wed 02:39:13 PM 30.0622 -81.2797 354° North 134 154 5,500  Level Jacksonville Center
Wed 02:40:08 PM 30.0978 -81.2839 354° North 132 152 5,500  Level Jacksonville Center
Wed 02:41:15 PM 30.1394 -81.2881 355° North 130 150 5,500  Level Jacksonville Center
Wed 02:42:16 PM 30.1750 -81.2922 354° North 129 148 5,500  Level Jacksonville Center
Wed 02:43:17 PM 30.2106 -81.2967 354° North 131 151 5,500  Level Jacksonville Center
Wed 02:44:24 PM 30.2525 -81.3006 355° North 126 145 5,500  Level Jacksonville Center
Wed 02:45:19 PM 30.2836 -81.3000 North 126 145 5,500  Level Jacksonville Center
Wed 02:46:20 PM 30.3194 -81.3092 348° North 129 148 5,500  Level Jacksonville Center
Wed 02:47:21 PM 30.3569 -81.3108 358° North 132 152 5,500  Level Jacksonville Center
Wed 02:48:22 PM 30.3925 -81.3153 354° North 131 151 5,500  Level Jacksonville Center
Wed 02:49:23 PM 30.4300 -81.3194 355° North 133 153 5,500  Level Jacksonville Center
Wed 02:50:24 PM 30.4697 -81.3236 355° North 131 151 5,500  Level Jacksonville Center
Wed 02:51:25 PM 30.5033 -81.3278 354° North 130 150 5,500  Level Jacksonville Center
Wed 02:52:26 PM 30.5389 -81.3297 357° North 128 147 5,500  Level Jacksonville Center
Wed 02:53:27 PM 30.5764 -81.3339 355° North 130 150 5,500  Level Jacksonville Center
Wed 02:54:28 PM 30.6119 -81.3381 354° North 133 153 5,500  Level Jacksonville Center
Wed 02:55:29 PM 30.6517 -81.3422 355° North 131 151 5,500  Level Jacksonville Center
Wed 02:56:30 PM 30.6894 -81.3464 355° North 131 151 5,500  Level Jacksonville Center

Login

Don't have an account? Register now (free) for customized features, flight alerts, and more!